Terminal Aerodrome Forecast
Issued by NWS

Home | Current Version | Previous Version | Text Only | Print | Product List | Glossary On
Versions: 1 2 3 4 5 6 7 8 9 10 11 12
000
FTUS46 KSEW 032320
TAFBFI
TAF
KBFI 032320Z 0400/0424 23004KT P6SM SCT160
     FM040500 18005KT P6SM BKN050
     FM041000 17005KT P6SM OVC020
     FM041800 20005KT P6SM SCT030 BKN050
     FM042100 22005KT P6SM SCT050 BKN100=

USA.gov is the U.S. government's official web portal to all federal, state and local government web resources and services.